sensor_id;sensor_type;location;lat;lon;timestamp;P1;durP1;ratioP1;P2;durP2;ratioP2
62554;SDS011;48610;52.144;8.624;2023-02-15T00:00:22;38.45;;;17.65;;
62554;SDS011;48610;52.144;8.624;2023-02-15T00:03:22;41.17;;;17.77;;
62554;SDS011;48610;52.144;8.624;2023-02-15T00:06:23;43.63;;;17.50;;
62554;SDS011;48610;52.144;8.624;2023-02-15T00:09:24;38.45;;;17.00;;
62554;SDS011;48610;52.144;8.624;2023-02-15T00:12:24;44.15;;;18.17;;
62554;SDS011;48610;52.144;8.624;2023-02-15T00:15:25;41.40;;;17.08;;
62554;SDS011;48610;52.144;8.624;2023-02-15T00:18:25;44.13;;;18.60;;
62554;SDS011;48610;52.144;8.624;2023-02-15T00:21:26;43.10;;;17.80;;
62554;SDS011;48610;52.144;8.624;2023-02-15T00:24:27;40.22;;;18.10;;
62554;SDS011;48610;52.144;8.624;2023-02-15T00:27:28;40.97;;;18.40;;
62554;SDS011;48610;52.144;8.624;2023-02-15T00:30:28;44.70;;;17.70;;
62554;SDS011;48610;52.144;8.624;2023-02-15T00:33:29;45.10;;;17.15;;
62554;SDS011;48610;52.144;8.624;2023-02-15T00:36:29;41.80;;;17.63;;
62554;SDS011;48610;52.144;8.624;2023-02-15T00:39:30;44.50;;;18.10;;
62554;SDS011;48610;52.144;8.624;2023-02-15T00:42:30;45.72;;;18.20;;
62554;SDS011;48610;52.144;8.624;2023-02-15T00:45:31;42.60;;;16.90;;
62554;SDS011;48610;52.144;8.624;2023-02-15T00:48:32;42.60;;;17.88;;
62554;SDS011;48610;52.144;8.624;2023-02-15T00:51:32;51.70;;;19.48;;
62554;SDS011;48610;52.144;8.624;2023-02-15T00:54:34;44.15;;;20.13;;
62554;SDS011;48610;52.144;8.624;2023-02-15T00:57:34;48.05;;;19.33;;
62554;SDS011;48610;52.144;8.624;2023-02-15T01:00:35;43.90;;;19.63;;
62554;SDS011;48610;52.144;8.624;2023-02-15T01:03:37;44.90;;;18.92;;
62554;SDS011;48610;52.144;8.624;2023-02-15T01:06:38;46.63;;;19.15;;
62554;SDS011;48610;52.144;8.624;2023-02-15T01:09:38;47.97;;;18.88;;
62554;SDS011;48610;52.144;8.624;2023-02-15T01:12:39;50.22;;;20.10;;
62554;SDS011;48610;52.144;8.624;2023-02-15T01:15:39;50.50;;;18.67;;
62554;SDS011;48610;52.144;8.624;2023-02-15T01:18:40;45.17;;;18.17;;
62554;SDS011;48610;52.144;8.624;2023-02-15T01:21:40;46.08;;;18.15;;
62554;SDS011;48610;52.144;8.624;2023-02-15T01:24:41;44.08;;;19.10;;
62554;SDS011;48610;52.144;8.624;2023-02-15T01:27:42;43.72;;;20.02;;
62554;SDS011;48610;52.144;8.624;2023-02-15T01:30:43;47.20;;;21.08;;
62554;SDS011;48610;52.144;8.624;2023-02-15T01:33:43;51.22;;;20.42;;
62554;SDS011;48610;52.144;8.624;2023-02-15T01:36:45;46.10;;;19.90;;
62554;SDS011;48610;52.144;8.624;2023-02-15T01:39:45;51.47;;;19.88;;
62554;SDS011;48610;52.144;8.624;2023-02-15T01:42:49;54.30;;;19.45;;
62554;SDS011;48610;52.144;8.624;2023-02-15T01:45:53;45.65;;;18.42;;
62554;SDS011;48610;52.144;8.624;2023-02-15T01:48:56;54.75;;;20.08;;
62554;SDS011;48610;52.144;8.624;2023-02-15T01:52:01;47.40;;;18.88;;
62554;SDS011;48610;52.144;8.624;2023-02-15T01:55:01;41.08;;;18.10;;
62554;SDS011;48610;52.144;8.624;2023-02-15T01:58:02;49.40;;;19.60;;
62554;SDS011;48610;52.144;8.624;2023-02-15T02:01:03;50.30;;;18.80;;
62554;SDS011;48610;52.144;8.624;2023-02-15T02:04:28;54.20;;;19.63;;
62554;SDS011;48610;52.144;8.624;2023-02-15T02:07:51;55.90;;;20.88;;
62554;SDS011;48610;52.144;8.624;2023-02-15T02:10:54;48.05;;;19.50;;
62554;SDS011;48610;52.144;8.624;2023-02-15T02:13:55;50.90;;;21.00;;
62554;SDS011;48610;52.144;8.624;2023-02-15T02:23:45;59.70;;;21.73;;
62554;SDS011;48610;52.144;8.624;2023-02-15T02:27:07;61.25;;;22.48;;
62554;SDS011;48610;52.144;8.624;2023-02-15T02:30:34;47.75;;;20.02;;
62554;SDS011;48610;52.144;8.624;2023-02-15T02:37:08;52.45;;;20.75;;
62554;SDS011;48610;52.144;8.624;2023-02-15T02:40:31;52.92;;;21.83;;
62554;SDS011;48610;52.144;8.624;2023-02-15T02:43:52;52.03;;;20.63;;
62554;SDS011;48610;52.144;8.624;2023-02-15T02:47:14;51.53;;;20.45;;
62554;SDS011;48610;52.144;8.624;2023-02-15T02:50:26;56.10;;;22.77;;
62554;SDS011;48610;52.144;8.624;2023-02-15T02:53:29;54.83;;;21.88;;
62554;SDS011;48610;52.144;8.624;2023-02-15T02:56:38;57.72;;;21.75;;
62554;SDS011;48610;52.144;8.624;2023-02-15T02:59:44;54.35;;;21.98;;
62554;SDS011;48610;52.144;8.624;2023-02-15T03:02:47;57.67;;;22.42;;
62554;SDS011;48610;52.144;8.624;2023-02-15T03:05:53;54.75;;;22.55;;
62554;SDS011;48610;52.144;8.624;2023-02-15T03:09:12;55.63;;;21.23;;
62554;SDS011;48610;52.144;8.624;2023-02-15T03:12:22;51.88;;;21.67;;
62554;SDS011;48610;52.144;8.624;2023-02-15T03:15:31;54.25;;;22.42;;
62554;SDS011;48610;52.144;8.624;2023-02-15T03:22:23;60.28;;;23.23;;
62554;SDS011;48610;52.144;8.624;2023-02-15T03:25:34;50.95;;;21.13;;
62554;SDS011;48610;52.144;8.624;2023-02-15T03:28:41;60.00;;;24.52;;
62554;SDS011;48610;52.144;8.624;2023-02-15T03:31:44;55.10;;;22.77;;
62554;SDS011;48610;52.144;8.624;2023-02-15T03:37:54;58.90;;;19.33;;
62554;SDS011;48610;52.144;8.624;2023-02-15T03:40:58;57.50;;;22.55;;
62554;SDS011;48610;52.144;8.624;2023-02-15T03:44:15;62.00;;;22.17;;
62554;SDS011;48610;52.144;8.624;2023-02-15T03:47:26;55.40;;;22.15;;
62554;SDS011;48610;52.144;8.624;2023-02-15T03:50:33;57.72;;;22.98;;
62554;SDS011;48610;52.144;8.624;2023-02-15T03:53:55;56.28;;;20.65;;
62554;SDS011;48610;52.144;8.624;2023-02-15T03:56:57;61.97;;;23.73;;
62554;SDS011;48610;52.144;8.624;2023-02-15T04:00:17;61.03;;;21.35;;
62554;SDS011;48610;52.144;8.624;2023-02-15T04:03:40;53.83;;;21.65;;
62554;SDS011;48610;52.144;8.624;2023-02-15T04:07:02;62.97;;;24.38;;
62554;SDS011;48610;52.144;8.624;2023-02-15T04:10:05;50.75;;;19.65;;
62554;SDS011;48610;52.144;8.624;2023-02-15T04:13:31;51.92;;;19.15;;
62554;SDS011;48610;52.144;8.624;2023-02-15T04:16:32;55.42;;;18.88;;
62554;SDS011;48610;52.144;8.624;2023-02-15T04:19:33;58.63;;;22.48;;
62554;SDS011;48610;52.144;8.624;2023-02-15T04:22:52;60.63;;;23.45;;
62554;SDS011;48610;52.144;8.624;2023-02-15T04:26:11;55.80;;;21.52;;
62554;SDS011;48610;52.144;8.624;2023-02-15T04:29:12;54.67;;;21.98;;
62554;SDS011;48610;52.144;8.624;2023-02-15T04:32:12;72.10;;;26.95;;
62554;SDS011;48610;52.144;8.624;2023-02-15T04:35:13;74.32;;;24.05;;
62554;SDS011;48610;52.144;8.624;2023-02-15T04:38:14;67.22;;;24.80;;
62554;SDS011;48610;52.144;8.624;2023-02-15T04:41:14;71.35;;;27.00;;
62554;SDS011;48610;52.144;8.624;2023-02-15T04:44:15;61.17;;;24.02;;
62554;SDS011;48610;52.144;8.624;2023-02-15T04:47:16;56.92;;;22.38;;
62554;SDS011;48610;52.144;8.624;2023-02-15T04:50:16;51.75;;;20.65;;
62554;SDS011;48610;52.144;8.624;2023-02-15T04:53:17;67.55;;;26.90;;
62554;SDS011;48610;52.144;8.624;2023-02-15T04:56:18;59.35;;;20.35;;
62554;SDS011;48610;52.144;8.624;2023-02-15T04:59:19;75.38;;;23.75;;
62554;SDS011;48610;52.144;8.624;2023-02-15T05:02:20;80.43;;;27.00;;
62554;SDS011;48610;52.144;8.624;2023-02-15T05:05:20;56.70;;;21.38;;
62554;SDS011;48610;52.144;8.624;2023-02-15T05:08:21;63.92;;;20.98;;
62554;SDS011;48610;52.144;8.624;2023-02-15T05:11:21;52.92;;;19.88;;
62554;SDS011;48610;52.144;8.624;2023-02-15T05:14:22;58.13;;;21.55;;
62554;SDS011;48610;52.144;8.624;2023-02-15T05:17:22;77.45;;;26.92;;
62554;SDS011;48610;52.144;8.624;2023-02-15T05:20:24;69.68;;;22.17;;
62554;SDS011;48610;52.144;8.624;2023-02-15T05:23:24;68.88;;;23.58;;
62554;SDS011;48610;52.144;8.624;2023-02-15T05:26:25;70.28;;;22.23;;
62554;SDS011;48610;52.144;8.624;2023-02-15T05:29:44;74.40;;;25.80;;
62554;SDS011;48610;52.144;8.624;2023-02-15T05:32:45;68.15;;;23.65;;
62554;SDS011;48610;52.144;8.624;2023-02-15T05:35:45;79.97;;;27.15;;
62554;SDS011;48610;52.144;8.624;2023-02-15T05:38:46;66.82;;;23.30;;
62554;SDS011;48610;52.144;8.624;2023-02-15T05:41:46;81.13;;;27.30;;
62554;SDS011;48610;52.144;8.624;2023-02-15T05:44:47;71.72;;;23.02;;
62554;SDS011;48610;52.144;8.624;2023-02-15T05:47:47;75.35;;;25.67;;
62554;SDS011;48610;52.144;8.624;2023-02-15T05:50:58;62.45;;;23.77;;
62554;SDS011;48610;52.144;8.624;2023-02-15T05:54:09;37.38;;;13.80;;
62554;SDS011;48610;52.144;8.624;2023-02-15T05:57:10;56.55;;;21.80;;
62554;SDS011;48610;52.144;8.624;2023-02-15T06:00:11;34.90;;;13.68;;
62554;SDS011;48610;52.144;8.624;2023-02-15T06:03:12;76.57;;;23.60;;
62554;SDS011;48610;52.144;8.624;2023-02-15T06:06:13;78.38;;;27.33;;
62554;SDS011;48610;52.144;8.624;2023-02-15T06:09:14;82.85;;;26.98;;
62554;SDS011;48610;52.144;8.624;2023-02-15T06:12:14;89.68;;;26.17;;
62554;SDS011;48610;52.144;8.624;2023-02-15T06:15:15;58.67;;;18.27;;
62554;SDS011;48610;52.144;8.624;2023-02-15T06:18:16;98.93;;;28.80;;
62554;SDS011;48610;52.144;8.624;2023-02-15T06:21:16;64.38;;;22.67;;
62554;SDS011;48610;52.144;8.624;2023-02-15T06:24:17;61.67;;;21.58;;
62554;SDS011;48610;52.144;8.624;2023-02-15T06:27:17;82.13;;;26.58;;
62554;SDS011;48610;52.144;8.624;2023-02-15T06:30:18;69.35;;;21.88;;
62554;SDS011;48610;52.144;8.624;2023-02-15T06:33:19;69.10;;;22.73;;
62554;SDS011;48610;52.144;8.624;2023-02-15T06:36:19;84.78;;;26.95;;
62554;SDS011;48610;52.144;8.624;2023-02-15T06:39:20;83.32;;;27.58;;
62554;SDS011;48610;52.144;8.624;2023-02-15T06:42:21;82.45;;;26.27;;
62554;SDS011;48610;52.144;8.624;2023-02-15T06:45:22;32.45;;;12.85;;
62554;SDS011;48610;52.144;8.624;2023-02-15T06:48:22;67.25;;;23.80;;
62554;SDS011;48610;52.144;8.624;2023-02-15T06:51:23;76.35;;;26.30;;
62554;SDS011;48610;52.144;8.624;2023-02-15T06:54:23;97.57;;;29.73;;
62554;SDS011;48610;52.144;8.624;2023-02-15T06:57:24;71.18;;;23.75;;
62554;SDS011;48610;52.144;8.624;2023-02-15T07:00:24;70.72;;;23.80;;
62554;SDS011;48610;52.144;8.624;2023-02-15T07:03:25;79.45;;;25.30;;
62554;SDS011;48610;52.144;8.624;2023-02-15T07:06:26;86.05;;;25.65;;
62554;SDS011;48610;52.144;8.624;2023-02-15T07:09:30;71.40;;;22.48;;
62554;SDS011;48610;52.144;8.624;2023-02-15T07:12:30;83.55;;;24.20;;
62554;SDS011;48610;52.144;8.624;2023-02-15T07:15:44;89.90;;;29.42;;
62554;SDS011;48610;52.144;8.624;2023-02-15T07:18:47;81.07;;;24.90;;
62554;SDS011;48610;52.144;8.624;2023-02-15T07:21:48;88.38;;;28.13;;
62554;SDS011;48610;52.144;8.624;2023-02-15T07:24:49;89.75;;;31.55;;
62554;SDS011;48610;52.144;8.624;2023-02-15T07:27:54;86.45;;;24.80;;
62554;SDS011;48610;52.144;8.624;2023-02-15T07:31:00;63.67;;;23.73;;
62554;SDS011;48610;52.144;8.624;2023-02-15T07:34:02;88.85;;;27.80;;
62554;SDS011;48610;52.144;8.624;2023-02-15T07:37:03;91.00;;;30.63;;
62554;SDS011;48610;52.144;8.624;2023-02-15T07:40:04;67.72;;;23.45;;
62554;SDS011;48610;52.144;8.624;2023-02-15T07:43:05;80.97;;;24.23;;
62554;SDS011;48610;52.144;8.624;2023-02-15T07:46:07;90.03;;;26.23;;
62554;SDS011;48610;52.144;8.624;2023-02-15T07:49:13;85.20;;;25.40;;
62554;SDS011;48610;52.144;8.624;2023-02-15T07:52:14;91.28;;;26.60;;
62554;SDS011;48610;52.144;8.624;2023-02-15T07:55:15;82.78;;;26.13;;
62554;SDS011;48610;52.144;8.624;2023-02-15T07:58:15;84.10;;;27.98;;
62554;SDS011;48610;52.144;8.624;2023-02-15T08:01:16;67.78;;;24.33;;
62554;SDS011;48610;52.144;8.624;2023-02-15T08:04:19;49.20;;;16.30;;
62554;SDS011;48610;52.144;8.624;2023-02-15T08:07:19;83.47;;;26.30;;
62554;SDS011;48610;52.144;8.624;2023-02-15T08:10:20;76.47;;;23.30;;
62554;SDS011;48610;52.144;8.624;2023-02-15T08:13:41;62.58;;;19.60;;
62554;SDS011;48610;52.144;8.624;2023-02-15T08:16:54;75.25;;;22.83;;
62554;SDS011;48610;52.144;8.624;2023-02-15T08:19:56;74.03;;;23.83;;
62554;SDS011;48610;52.144;8.624;2023-02-15T08:22:56;67.38;;;20.10;;
62554;SDS011;48610;52.144;8.624;2023-02-15T08:25:59;81.78;;;26.50;;
62554;SDS011;48610;52.144;8.624;2023-02-15T08:29:00;74.63;;;25.40;;
62554;SDS011;48610;52.144;8.624;2023-02-15T08:32:03;82.90;;;23.20;;
62554;SDS011;48610;52.144;8.624;2023-02-15T08:35:05;71.88;;;24.85;;
62554;SDS011;48610;52.144;8.624;2023-02-15T08:38:06;85.10;;;26.38;;
62554;SDS011;48610;52.144;8.624;2023-02-15T08:41:10;76.85;;;25.33;;
62554;SDS011;48610;52.144;8.624;2023-02-15T08:44:15;76.30;;;27.15;;
62554;SDS011;48610;52.144;8.624;2023-02-15T08:47:17;80.03;;;24.13;;
62554;SDS011;48610;52.144;8.624;2023-02-15T08:50:17;83.63;;;28.35;;
62554;SDS011;48610;52.144;8.624;2023-02-15T08:53:18;53.17;;;18.95;;
62554;SDS011;48610;52.144;8.624;2023-02-15T08:56:25;65.32;;;24.10;;
62554;SDS011;48610;52.144;8.624;2023-02-15T08:59:27;43.17;;;17.45;;
62554;SDS011;48610;52.144;8.624;2023-02-15T09:02:28;55.22;;;20.67;;
62554;SDS011;48610;52.144;8.624;2023-02-15T09:05:28;54.47;;;20.90;;
62554;SDS011;48610;52.144;8.624;2023-02-15T09:08:29;63.70;;;25.92;;
62554;SDS011;48610;52.144;8.624;2023-02-15T09:11:30;50.47;;;18.17;;
62554;SDS011;48610;52.144;8.624;2023-02-15T09:14:33;57.60;;;20.77;;
62554;SDS011;48610;52.144;8.624;2023-02-15T09:17:34;61.90;;;21.35;;
62554;SDS011;48610;52.144;8.624;2023-02-15T09:20:35;51.38;;;19.85;;
62554;SDS011;48610;52.144;8.624;2023-02-15T09:23:36;56.20;;;20.73;;
62554;SDS011;48610;52.144;8.624;2023-02-15T09:26:38;56.08;;;20.58;;
62554;SDS011;48610;52.144;8.624;2023-02-15T09:29:42;61.47;;;23.80;;
62554;SDS011;48610;52.144;8.624;2023-02-15T09:32:43;74.63;;;22.35;;
62554;SDS011;48610;52.144;8.624;2023-02-15T09:35:46;55.95;;;20.48;;
62554;SDS011;48610;52.144;8.624;2023-02-15T09:38:46;44.50;;;16.45;;
62554;SDS011;48610;52.144;8.624;2023-02-15T09:42:04;32.87;;;13.67;;
62554;SDS011;48610;52.144;8.624;2023-02-15T09:45:34;55.33;;;21.95;;
62554;SDS011;48610;52.144;8.624;2023-02-15T09:48:45;65.57;;;25.52;;
62554;SDS011;48610;52.144;8.624;2023-02-15T09:52:04;51.10;;;19.85;;
62554;SDS011;48610;52.144;8.624;2023-02-15T10:28:32;55.33;;;19.42;;
62554;SDS011;48610;52.144;8.624;2023-02-15T10:31:50;55.03;;;20.00;;
62554;SDS011;48610;52.144;8.624;2023-02-15T10:35:01;50.60;;;18.50;;
62554;SDS011;48610;52.144;8.624;2023-02-15T10:42:20;59.72;;;21.20;;
62554;SDS011;48610;52.144;8.624;2023-02-15T10:45:04;55.30;;;19.30;;
62554;SDS011;48610;52.144;8.624;2023-02-15T10:59:04;60.58;;;22.42;;
62554;SDS011;48610;52.144;8.624;2023-02-15T11:09:16;53.15;;;19.45;;
62554;SDS011;48610;52.144;8.624;2023-02-15T11:12:22;60.45;;;23.02;;
62554;SDS011;48610;52.144;8.624;2023-02-15T11:15:43;53.28;;;22.00;;
62554;SDS011;48610;52.144;8.624;2023-02-15T11:19:31;50.22;;;19.35;;
62554;SDS011;48610;52.144;8.624;2023-02-15T11:22:28;64.72;;;23.33;;
62554;SDS011;48610;52.144;8.624;2023-02-15T11:25:32;51.78;;;20.90;;
62554;SDS011;48610;52.144;8.624;2023-02-15T11:28:39;59.35;;;18.92;;
62554;SDS011;48610;52.144;8.624;2023-02-15T11:31:53;56.00;;;22.13;;
62554;SDS011;48610;52.144;8.624;2023-02-15T11:38:24;60.53;;;20.55;;
62554;SDS011;48610;52.144;8.624;2023-02-15T11:41:29;53.83;;;20.67;;
62554;SDS011;48610;52.144;8.624;2023-02-15T11:45:17;50.05;;;20.70;;
62554;SDS011;48610;52.144;8.624;2023-02-15T11:48:26;53.13;;;21.25;;
62554;SDS011;48610;52.144;8.624;2023-02-15T11:51:31;56.85;;;20.63;;
62554;SDS011;48610;52.144;8.624;2023-02-15T11:54:32;55.75;;;19.77;;
62554;SDS011;48610;52.144;8.624;2023-02-15T11:57:39;46.80;;;19.02;;
62554;SDS011;48610;52.144;8.624;2023-02-15T12:00:45;50.78;;;21.48;;
62554;SDS011;48610;52.144;8.624;2023-02-15T12:03:54;54.50;;;19.95;;
62554;SDS011;48610;52.144;8.624;2023-02-15T12:07:09;56.00;;;20.75;;
62554;SDS011;48610;52.144;8.624;2023-02-15T12:10:28;53.13;;;21.13;;
62554;SDS011;48610;52.144;8.624;2023-02-15T12:13:33;52.28;;;20.77;;
62554;SDS011;48610;52.144;8.624;2023-02-15T12:16:40;48.03;;;19.30;;
62554;SDS011;48610;52.144;8.624;2023-02-15T12:19:55;50.22;;;20.90;;
62554;SDS011;48610;52.144;8.624;2023-02-15T12:23:00;51.92;;;22.15;;
62554;SDS011;48610;52.144;8.624;2023-02-15T12:26:03;50.80;;;21.63;;
62554;SDS011;48610;52.144;8.624;2023-02-15T12:29:09;51.95;;;21.80;;
62554;SDS011;48610;52.144;8.624;2023-02-15T12:32:19;60.38;;;24.25;;
62554;SDS011;48610;52.144;8.624;2023-02-15T12:38:32;59.33;;;23.35;;
62554;SDS011;48610;52.144;8.624;2023-02-15T12:41:33;50.05;;;20.35;;
62554;SDS011;48610;52.144;8.624;2023-02-15T12:44:34;51.53;;;20.52;;
62554;SDS011;48610;52.144;8.624;2023-02-15T12:47:37;51.42;;;19.60;;
62554;SDS011;48610;52.144;8.624;2023-02-15T12:50:38;49.08;;;21.48;;
62554;SDS011;48610;52.144;8.624;2023-02-15T12:53:42;48.53;;;19.27;;
62554;SDS011;48610;52.144;8.624;2023-02-15T12:56:43;50.95;;;21.52;;
62554;SDS011;48610;52.144;8.624;2023-02-15T13:02:53;51.67;;;20.52;;
62554;SDS011;48610;52.144;8.624;2023-02-15T13:05:56;50.58;;;19.77;;
62554;SDS011;48610;52.144;8.624;2023-02-15T13:09:05;52.78;;;19.48;;
62554;SDS011;48610;52.144;8.624;2023-02-15T13:15:32;48.55;;;18.42;;
62554;SDS011;48610;52.144;8.624;2023-02-15T13:18:37;51.55;;;19.20;;
62554;SDS011;48610;52.144;8.624;2023-02-15T13:21:44;49.53;;;19.02;;
62554;SDS011;48610;52.144;8.624;2023-02-15T13:24:48;50.67;;;18.97;;
62554;SDS011;48610;52.144;8.624;2023-02-15T13:27:52;47.05;;;19.90;;
62554;SDS011;48610;52.144;8.624;2023-02-15T13:30:56;56.33;;;20.63;;
62554;SDS011;48610;52.144;8.624;2023-02-15T13:40:46;50.13;;;20.27;;
62554;SDS011;48610;52.144;8.624;2023-02-15T13:44:04;59.80;;;20.83;;
62554;SDS011;48610;52.144;8.624;2023-02-15T13:50:52;60.30;;;22.58;;
62554;SDS011;48610;52.144;8.624;2023-02-15T13:57:25;51.40;;;20.83;;
62554;SDS011;48610;52.144;8.624;2023-02-15T14:00:50;53.25;;;20.92;;
62554;SDS011;48610;52.144;8.624;2023-02-15T14:07:27;44.42;;;19.00;;
62554;SDS011;48610;52.144;8.624;2023-02-15T14:10:43;43.28;;;20.00;;
62554;SDS011;48610;52.144;8.624;2023-02-15T14:14:11;54.17;;;21.75;;
62554;SDS011;48610;52.144;8.624;2023-02-15T14:21:04;45.88;;;18.35;;
62554;SDS011;48610;52.144;8.624;2023-02-15T14:30:25;45.00;;;18.48;;
62554;SDS011;48610;52.144;8.624;2023-02-15T14:33:33;49.05;;;19.95;;
62554;SDS011;48610;52.144;8.624;2023-02-15T14:36:36;49.95;;;19.83;;
62554;SDS011;48610;52.144;8.624;2023-02-15T14:43:21;43.53;;;18.33;;
62554;SDS011;48610;52.144;8.624;2023-02-15T14:49:46;40.53;;;17.45;;
62554;SDS011;48610;52.144;8.624;2023-02-15T14:53:14;45.08;;;19.90;;
62554;SDS011;48610;52.144;8.624;2023-02-15T14:56:28;47.58;;;20.52;;
62554;SDS011;48610;52.144;8.624;2023-02-15T15:02:57;37.03;;;16.52;;
62554;SDS011;48610;52.144;8.624;2023-02-15T15:05:58;44.95;;;18.38;;
62554;SDS011;48610;52.144;8.624;2023-02-15T15:18:53;48.20;;;19.55;;
62554;SDS011;48610;52.144;8.624;2023-02-15T15:21:53;46.60;;;19.50;;
62554;SDS011;48610;52.144;8.624;2023-02-15T15:27:59;48.33;;;20.37;;
62554;SDS011;48610;52.144;8.624;2023-02-15T15:31:08;44.30;;;18.70;;
62554;SDS011;48610;52.144;8.624;2023-02-15T15:51:27;41.88;;;18.23;;
62554;SDS011;48610;52.144;8.624;2023-02-15T15:54:31;43.90;;;18.63;;
62554;SDS011;48610;52.144;8.624;2023-02-15T15:57:33;42.35;;;19.30;;
62554;SDS011;48610;52.144;8.624;2023-02-15T16:00:42;42.97;;;17.77;;
62554;SDS011;48610;52.144;8.624;2023-02-15T16:03:52;40.05;;;17.45;;
62554;SDS011;48610;52.144;8.624;2023-02-15T16:06:55;47.60;;;17.15;;
62554;SDS011;48610;52.144;8.624;2023-02-15T16:09:58;40.38;;;16.00;;
62554;SDS011;48610;52.144;8.624;2023-02-15T16:13:06;39.65;;;16.88;;
62554;SDS011;48610;52.144;8.624;2023-02-15T16:16:07;45.38;;;17.05;;
62554;SDS011;48610;52.144;8.624;2023-02-15T16:19:14;35.65;;;17.38;;
62554;SDS011;48610;52.144;8.624;2023-02-15T16:22:19;45.10;;;18.40;;
62554;SDS011;48610;52.144;8.624;2023-02-15T16:28:50;44.90;;;19.63;;
62554;SDS011;48610;52.144;8.624;2023-02-15T16:32:14;49.45;;;20.33;;
62554;SDS011;48610;52.144;8.624;2023-02-15T16:35:21;58.88;;;21.42;;
62554;SDS011;48610;52.144;8.624;2023-02-15T16:41:41;43.78;;;18.45;;
62554;SDS011;48610;52.144;8.624;2023-02-15T16:44:47;43.42;;;17.80;;
62554;SDS011;48610;52.144;8.624;2023-02-15T16:47:52;38.25;;;16.70;;
62554;SDS011;48610;52.144;8.624;2023-02-15T16:50:56;39.28;;;19.40;;
62554;SDS011;48610;52.144;8.624;2023-02-15T16:54:00;43.33;;;17.40;;
62554;SDS011;48610;52.144;8.624;2023-02-15T16:57:23;48.47;;;18.20;;
62554;SDS011;48610;52.144;8.624;2023-02-15T17:00:28;36.35;;;16.60;;
62554;SDS011;48610;52.144;8.624;2023-02-15T17:03:32;44.97;;;17.58;;
62554;SDS011;48610;52.144;8.624;2023-02-15T17:06:33;42.63;;;18.33;;
62554;SDS011;48610;52.144;8.624;2023-02-15T17:09:33;37.10;;;17.02;;
62554;SDS011;48610;52.144;8.624;2023-02-15T17:18:59;33.55;;;16.85;;
62554;SDS011;48610;52.144;8.624;2023-02-15T17:22:15;37.55;;;16.92;;
62554;SDS011;48610;52.144;8.624;2023-02-15T17:25:20;39.30;;;15.75;;
62554;SDS011;48610;52.144;8.624;2023-02-15T17:28:29;33.83;;;16.83;;
62554;SDS011;48610;52.144;8.624;2023-02-15T17:31:32;35.05;;;17.20;;
62554;SDS011;48610;52.144;8.624;2023-02-15T17:38:18;43.28;;;17.42;;
62554;SDS011;48610;52.144;8.624;2023-02-15T17:41:20;40.97;;;17.88;;
62554;SDS011;48610;52.144;8.624;2023-02-15T17:44:20;39.10;;;16.75;;
62554;SDS011;48610;52.144;8.624;2023-02-15T17:47:22;35.85;;;16.60;;
62554;SDS011;48610;52.144;8.624;2023-02-15T17:50:26;38.03;;;17.05;;
62554;SDS011;48610;52.144;8.624;2023-02-15T17:53:27;38.85;;;16.50;;
62554;SDS011;48610;52.144;8.624;2023-02-15T17:56:28;39.05;;;16.80;;
62554;SDS011;48610;52.144;8.624;2023-02-15T17:59:29;38.38;;;17.30;;
62554;SDS011;48610;52.144;8.624;2023-02-15T18:02:30;44.78;;;17.42;;
62554;SDS011;48610;52.144;8.624;2023-02-15T18:05:53;45.60;;;18.98;;
62554;SDS011;48610;52.144;8.624;2023-02-15T18:09:14;42.20;;;18.70;;
62554;SDS011;48610;52.144;8.624;2023-02-15T18:12:35;46.20;;;20.08;;
62554;SDS011;48610;52.144;8.624;2023-02-15T18:15:37;36.38;;;17.30;;
62554;SDS011;48610;52.144;8.624;2023-02-15T18:18:38;38.65;;;17.60;;
62554;SDS011;48610;52.144;8.624;2023-02-15T18:21:38;44.45;;;18.02;;
62554;SDS011;48610;52.144;8.624;2023-02-15T18:24:39;41.75;;;18.27;;
62554;SDS011;48610;52.144;8.624;2023-02-15T18:27:39;47.95;;;18.67;;
62554;SDS011;48610;52.144;8.624;2023-02-15T18:30:40;46.47;;;18.77;;
62554;SDS011;48610;52.144;8.624;2023-02-15T18:33:44;44.85;;;18.35;;
62554;SDS011;48610;52.144;8.624;2023-02-15T18:36:48;42.50;;;19.55;;
62554;SDS011;48610;52.144;8.624;2023-02-15T18:39:49;44.50;;;19.63;;
62554;SDS011;48610;52.144;8.624;2023-02-15T18:42:53;46.97;;;19.52;;
62554;SDS011;48610;52.144;8.624;2023-02-15T18:45:55;46.30;;;18.65;;
62554;SDS011;48610;52.144;8.624;2023-02-15T18:48:56;50.33;;;19.70;;
62554;SDS011;48610;52.144;8.624;2023-02-15T18:51:56;38.67;;;15.60;;
62554;SDS011;48610;52.144;8.624;2023-02-15T18:54:58;43.05;;;17.52;;
62554;SDS011;48610;52.144;8.624;2023-02-15T18:58:01;52.15;;;19.40;;
62554;SDS011;48610;52.144;8.624;2023-02-15T19:01:02;44.88;;;19.75;;
62554;SDS011;48610;52.144;8.624;2023-02-15T19:04:03;41.10;;;18.65;;
62554;SDS011;48610;52.144;8.624;2023-02-15T19:07:04;48.67;;;20.13;;
62554;SDS011;48610;52.144;8.624;2023-02-15T19:10:06;44.53;;;18.05;;
62554;SDS011;48610;52.144;8.624;2023-02-15T19:13:12;49.75;;;19.67;;
62554;SDS011;48610;52.144;8.624;2023-02-15T19:16:32;46.33;;;19.55;;
62554;SDS011;48610;52.144;8.624;2023-02-15T19:19:34;51.72;;;19.33;;
62554;SDS011;48610;52.144;8.624;2023-02-15T19:22:34;51.42;;;21.45;;
62554;SDS011;48610;52.144;8.624;2023-02-15T19:25:35;47.13;;;19.75;;
62554;SDS011;48610;52.144;8.624;2023-02-15T19:28:38;51.17;;;20.70;;
62554;SDS011;48610;52.144;8.624;2023-02-15T19:31:38;45.15;;;19.00;;
62554;SDS011;48610;52.144;8.624;2023-02-15T19:34:39;50.53;;;21.10;;
62554;SDS011;48610;52.144;8.624;2023-02-15T19:37:40;53.38;;;21.52;;
62554;SDS011;48610;52.144;8.624;2023-02-15T19:40:43;47.60;;;20.20;;
62554;SDS011;48610;52.144;8.624;2023-02-15T19:43:51;51.95;;;20.38;;
62554;SDS011;48610;52.144;8.624;2023-02-15T19:46:54;61.75;;;21.55;;
62554;SDS011;48610;52.144;8.624;2023-02-15T19:49:55;55.28;;;20.92;;
62554;SDS011;48610;52.144;8.624;2023-02-15T19:53:00;50.42;;;19.90;;
62554;SDS011;48610;52.144;8.624;2023-02-15T19:56:02;53.83;;;19.85;;
62554;SDS011;48610;52.144;8.624;2023-02-15T19:59:02;60.67;;;20.85;;
62554;SDS011;48610;52.144;8.624;2023-02-15T20:02:03;58.15;;;21.00;;
62554;SDS011;48610;52.144;8.624;2023-02-15T20:05:04;59.45;;;21.70;;
62554;SDS011;48610;52.144;8.624;2023-02-15T20:08:05;52.67;;;19.55;;
62554;SDS011;48610;52.144;8.624;2023-02-15T20:11:11;50.47;;;19.25;;
62554;SDS011;48610;52.144;8.624;2023-02-15T20:14:13;52.53;;;20.33;;
62554;SDS011;48610;52.144;8.624;2023-02-15T20:17:14;58.47;;;21.30;;
62554;SDS011;48610;52.144;8.624;2023-02-15T20:20:15;52.53;;;20.95;;
62554;SDS011;48610;52.144;8.624;2023-02-15T20:23:25;47.92;;;19.17;;
62554;SDS011;48610;52.144;8.624;2023-02-15T20:26:31;48.03;;;20.52;;
62554;SDS011;48610;52.144;8.624;2023-02-15T20:29:31;63.10;;;21.38;;
62554;SDS011;48610;52.144;8.624;2023-02-15T20:32:32;54.63;;;21.50;;
62554;SDS011;48610;52.144;8.624;2023-02-15T20:35:32;59.53;;;21.33;;
62554;SDS011;48610;52.144;8.624;2023-02-15T20:38:33;61.13;;;22.65;;
62554;SDS011;48610;52.144;8.624;2023-02-15T20:41:34;51.92;;;19.48;;
62554;SDS011;48610;52.144;8.624;2023-02-15T20:44:34;56.55;;;23.02;;
62554;SDS011;48610;52.144;8.624;2023-02-15T20:47:35;56.03;;;22.33;;
62554;SDS011;48610;52.144;8.624;2023-02-15T20:50:35;51.47;;;22.70;;